createdAt,value
2023-04-07T00:02:23.699Z,0.40
2023-04-07T00:07:26.043Z,0.60
2023-04-07T00:12:27.956Z,0.70
2023-04-07T00:17:29.891Z,0.70
2023-04-07T00:22:31.953Z,0.63
2023-04-07T00:27:34.023Z,0.80
2023-04-07T00:32:36.651Z,0.70
2023-04-07T00:37:38.836Z,1.00
2023-04-07T00:42:41.050Z,0.60
2023-04-07T00:47:43.141Z,0.52
2023-04-07T00:52:46.252Z,1.10
2023-04-07T00:57:48.244Z,0.60
2023-04-07T01:03:13.420Z,0.80
2023-04-07T01:08:35.994Z,0.90
2023-04-07T01:13:45.366Z,1.05
2023-04-07T01:18:51.384Z,1.27
2023-04-07T01:24:14.392Z,1.13
2023-04-07T01:29:37.639Z,1.45
2023-04-07T01:34:42.027Z,0.70
2023-04-07T01:39:44.552Z,0.77
2023-04-07T01:44:48.504Z,0.88
2023-04-07T01:49:51.711Z,0.77
2023-04-07T01:54:54.894Z,0.95
2023-04-07T01:59:56.804Z,1.05
2023-04-07T02:05:06.157Z,1.05
2023-04-07T02:10:12.430Z,1.23
2023-04-07T02:15:16.846Z,1.02
2023-04-07T02:20:20.771Z,0.93
2023-04-07T02:25:31.292Z,1.73
2023-04-07T02:30:33.935Z,1.15
2023-04-07T02:35:36.356Z,1.17
2023-04-07T02:40:38.421Z,0.95
2023-04-07T02:45:40.654Z,1.60
2023-04-07T02:50:42.989Z,1.10
2023-04-07T02:55:45.007Z,1.27
2023-04-07T03:00:49.652Z,1.63
2023-04-07T03:05:52.735Z,1.30
2023-04-07T03:10:54.768Z,1.13
2023-04-07T03:15:57.396Z,0.95
2023-04-07T03:20:59.658Z,1.30
2023-04-07T03:26:01.503Z,1.13
2023-04-07T03:31:04.307Z,0.90
2023-04-07T03:36:06.933Z,0.82
2023-04-07T03:41:09.029Z,1.27
2023-04-07T03:46:11.251Z,1.05
2023-04-07T03:51:13.541Z,1.25
2023-04-07T03:56:15.608Z,1.20
2023-04-07T04:01:17.526Z,1.30
2023-04-07T04:06:19.449Z,1.35
2023-04-07T04:11:22.454Z,1.33
2023-04-07T04:16:24.531Z,1.50
2023-04-07T04:21:27.603Z,0.80
2023-04-07T04:26:30.203Z,1.00
2023-04-07T04:31:32.474Z,1.17
2023-04-07T04:36:35.620Z,0.73
2023-04-07T04:41:38.527Z,0.88
2023-04-07T04:46:40.451Z,0.98
2023-04-07T04:51:42.633Z,0.68
2023-04-07T04:56:44.776Z,0.70
2023-04-07T05:01:47.465Z,0.80
2023-04-07T05:06:49.683Z,0.80
2023-04-07T05:11:51.578Z,0.50
2023-04-07T05:16:54.653Z,1.08
2023-04-07T05:21:56.841Z,0.70
2023-04-07T05:26:59.104Z,0.88
2023-04-07T05:32:02.174Z,0.63
2023-04-07T05:37:04.411Z,0.47
2023-04-07T05:42:06.646Z,0.80
2023-04-07T05:47:09.542Z,0.75
2023-04-07T05:52:12.388Z,0.52
2023-04-07T05:57:14.809Z,0.55
2023-04-07T06:02:16.880Z,0.57
2023-04-07T06:07:18.894Z,0.65
2023-04-07T06:12:21.041Z,0.50
2023-04-07T06:17:23.868Z,0.57
2023-04-07T06:22:25.961Z,0.90
2023-04-07T06:27:29.111Z,0.60
2023-04-07T06:32:31.317Z,0.90
2023-04-07T06:37:33.361Z,0.65
2023-04-07T06:42:35.301Z,0.90
2023-04-07T06:47:38.557Z,0.52
2023-04-07T06:52:40.691Z,1.10
2023-04-07T06:57:42.907Z,0.90
2023-04-07T07:02:45.315Z,1.00
2023-04-07T07:07:47.214Z,1.40
2023-04-07T07:12:52.598Z,1.27
2023-04-07T07:17:54.459Z,1.88
2023-04-07T07:22:57.044Z,1.70
2023-04-07T07:27:59.181Z,2.42
2023-04-07T07:33:01.555Z,2.72
2023-04-07T07:38:03.922Z,3.50
2023-04-07T07:43:07.038Z,3.22
2023-04-07T07:48:08.939Z,4.30
2023-04-07T07:53:11.322Z,2.90
2023-04-07T07:58:13.205Z,3.30
2023-04-07T08:03:17.423Z,3.40
2023-04-07T08:08:19.479Z,2.42
2023-04-07T08:13:21.709Z,2.38
2023-04-07T08:18:24.017Z,2.35
2023-04-07T08:23:26.419Z,1.65
2023-04-07T08:28:28.791Z,2.17
2023-04-07T08:33:31.003Z,1.77
2023-04-07T08:38:33.056Z,1.95
2023-04-07T08:43:37.193Z,1.67
2023-04-07T08:48:39.695Z,2.22
2023-04-07T08:53:50.477Z,1.65
2023-04-07T08:58:53.130Z,1.40
2023-04-07T09:03:58.536Z,1.90
2023-04-07T09:09:01.129Z,1.20
2023-04-07T09:14:03.452Z,1.70
2023-04-07T09:19:06.760Z,1.55
2023-04-07T09:24:35.031Z,1.23
2023-04-07T09:29:37.080Z,1.30
2023-04-07T09:34:41.394Z,1.20
2023-04-07T09:39:51.820Z,1.02
2023-04-07T09:44:53.921Z,1.13
2023-04-07T09:49:57.158Z,1.00
2023-04-07T09:54:59.348Z,1.30
2023-04-07T10:00:01.875Z,0.82
2023-04-07T10:05:04.239Z,1.63
2023-04-07T10:10:08.687Z,1.27
2023-04-07T10:15:14.230Z,0.95
2023-04-07T10:20:21.452Z,0.93
2023-04-07T10:25:27.045Z,1.00
2023-04-07T10:30:33.092Z,0.85
2023-04-07T10:36:07.633Z,1.10
2023-04-07T10:41:39.276Z,0.77
2023-04-07T10:46:52.264Z,1.05
2023-04-07T10:52:12.704Z,1.10
2023-04-07T10:57:16.351Z,1.00
2023-04-07T11:02:39.910Z,0.77
2023-04-07T11:07:55.614Z,0.80
2023-04-07T11:13:05.276Z,1.35
2023-04-07T11:18:18.239Z,1.63
2023-04-07T11:23:25.643Z,1.67
2023-04-07T11:28:28.377Z,1.00
2023-04-07T11:33:35.243Z,1.70
2023-04-07T11:38:38.878Z,0.90
2023-04-07T11:43:43.862Z,1.08
2023-04-07T11:48:47.566Z,1.30
2023-04-07T11:53:55.736Z,0.80
2023-04-07T11:58:58.505Z,1.00
2023-04-07T12:04:05.168Z,0.80
2023-04-07T12:09:08.170Z,0.88
2023-04-07T12:14:10.106Z,1.17
2023-04-07T12:19:12.409Z,0.95
2023-04-07T12:24:14.928Z,1.02
2023-04-07T12:29:18.565Z,0.65
2023-04-07T12:34:21.264Z,0.68
2023-04-07T12:39:23.459Z,0.75
2023-04-07T12:44:25.775Z,0.75
2023-04-07T12:49:28.962Z,0.63
2023-04-07T12:54:30.902Z,0.70
2023-04-07T12:59:33.017Z,0.95
2023-04-07T13:04:37.240Z,0.63
2023-04-07T13:09:40.889Z,0.90
2023-04-07T13:14:57.053Z,0.45
2023-04-07T13:20:02.410Z,0.98
2023-04-07T13:25:04.829Z,0.70
2023-04-07T13:30:07.668Z,0.55
2023-04-07T13:35:09.815Z,0.80
2023-04-07T13:40:13.017Z,0.73
2023-04-07T13:45:15.292Z,0.82
2023-04-07T13:50:17.545Z,0.40
2023-04-07T13:55:20.791Z,1.45
2023-04-07T14:00:22.824Z,0.68
2023-04-07T14:05:25.038Z,0.70
2023-04-07T14:10:27.789Z,0.75
2023-04-07T14:15:29.782Z,0.60
2023-04-07T14:20:31.780Z,0.60
2023-04-07T14:25:33.953Z,0.65
2023-04-07T14:30:39.010Z,0.43
2023-04-07T14:35:41.058Z,0.57
2023-04-07T14:40:43.342Z,0.65
2023-04-07T14:45:46.306Z,0.80
2023-04-07T14:50:53.827Z,1.13
2023-04-07T14:56:04.888Z,0.80
2023-04-07T15:01:07.369Z,0.90
2023-04-07T15:06:10.378Z,0.98
2023-04-07T15:11:13.437Z,1.00
2023-04-07T15:16:16.183Z,0.93
2023-04-07T15:21:19.377Z,0.90
2023-04-07T15:26:22.020Z,0.70
2023-04-07T15:31:25.643Z,0.93
2023-04-07T15:36:27.707Z,0.82
2023-04-07T15:41:30.095Z,0.68
2023-04-07T15:46:35.104Z,0.95
2023-04-07T15:51:37.300Z,1.05
2023-04-07T15:56:39.413Z,0.80
2023-04-07T16:01:41.709Z,0.63
2023-04-07T16:06:43.892Z,0.93
2023-04-07T16:11:45.856Z,0.60
2023-04-07T16:16:47.855Z,0.95
2023-04-07T16:21:49.855Z,1.20
2023-04-07T16:26:52.820Z,0.90
2023-04-07T16:31:54.823Z,1.17
2023-04-07T16:37:00.106Z,0.82
2023-04-07T16:42:02.572Z,0.90
2023-04-07T16:47:04.675Z,0.95
2023-04-07T16:52:06.654Z,0.60
2023-04-07T16:57:08.701Z,1.10
2023-04-07T17:02:13.442Z,0.70
2023-04-07T17:07:15.652Z,0.88
2023-04-07T17:12:17.612Z,1.15
2023-04-07T17:17:19.627Z,0.75
2023-04-07T17:22:21.539Z,0.55
2023-04-07T17:27:23.509Z,1.17
2023-04-07T17:32:26.613Z,0.75
2023-04-07T17:37:29.062Z,0.60
2023-04-07T17:42:31.248Z,0.40
2023-04-07T17:47:33.205Z,0.40
2023-04-07T17:52:35.441Z,0.60
2023-04-07T17:57:37.845Z,0.60
2023-04-07T18:02:41.022Z,0.73
2023-04-07T18:07:43.138Z,0.70
2023-04-07T18:12:45.859Z,0.88
2023-04-07T18:17:53.225Z,0.50
2023-04-07T18:22:56.107Z,0.50
2023-04-07T18:27:59.152Z,0.50
2023-04-07T18:33:01.206Z,1.10
2023-04-07T18:38:04.994Z,0.63
2023-04-07T18:43:07.213Z,0.80
2023-04-07T18:48:09.216Z,0.52
2023-04-07T18:53:12.086Z,0.60
2023-04-07T18:58:14.940Z,0.50
2023-04-07T19:03:17.100Z,0.50
2023-04-07T19:08:19.231Z,0.90
2023-04-07T19:13:21.187Z,0.38
2023-04-07T19:18:23.308Z,0.57
2023-04-07T19:23:25.783Z,0.50
2023-04-07T19:28:28.264Z,0.63
2023-04-07T19:33:30.531Z,0.40
2023-04-07T19:38:32.612Z,0.38
2023-04-07T19:43:34.539Z,0.57
2023-04-07T19:48:37.531Z,0.45
2023-04-07T19:53:39.468Z,0.35
2023-04-07T19:58:41.251Z,0.45
2023-04-07T20:03:43.454Z,0.52
2023-04-07T20:08:45.362Z,0.50
2023-04-07T20:13:48.134Z,0.43
2023-04-07T20:18:51.776Z,0.40
2023-04-07T20:23:54.031Z,1.02
2023-04-07T20:28:56.177Z,0.47
2023-04-07T20:33:59.895Z,0.60
2023-04-07T20:39:02.076Z,0.40
2023-04-07T20:44:04.582Z,0.40
2023-04-07T20:49:08.187Z,0.40
2023-04-07T20:54:10.222Z,0.40
2023-04-07T20:59:12.339Z,0.77
2023-04-07T21:04:14.563Z,0.40
2023-04-07T21:09:16.800Z,0.55
2023-04-07T21:14:18.822Z,0.80
2023-04-07T21:19:21.095Z,0.70
2023-04-07T21:24:23.285Z,0.80
2023-04-07T21:29:25.113Z,0.65
2023-04-07T21:34:27.361Z,0.50
2023-04-07T21:39:29.484Z,0.50
2023-04-07T21:44:32.229Z,0.45
2023-04-07T21:49:34.197Z,0.70
2023-04-07T21:54:36.848Z,0.77
2023-04-07T21:59:39.290Z,0.70
2023-04-07T22:04:41.206Z,0.50
2023-04-07T22:09:43.375Z,0.50
2023-04-07T22:14:45.795Z,0.45
2023-04-07T22:19:47.927Z,0.57
2023-04-07T22:24:50.122Z,0.47
2023-04-07T22:29:52.051Z,0.70
2023-04-07T22:34:54.104Z,0.70
2023-04-07T22:39:56.261Z,0.70
2023-04-07T22:44:58.110Z,0.63
2023-04-07T22:49:59.985Z,0.75
2023-04-07T22:55:02.059Z,0.80
2023-04-07T23:00:04.810Z,0.70
2023-04-07T23:05:12.967Z,0.70
2023-04-07T23:10:14.884Z,0.70
2023-04-07T23:15:16.916Z,0.52
2023-04-07T23:20:18.921Z,0.63
2023-04-07T23:25:22.820Z,0.60
2023-04-07T23:30:24.842Z,0.88
2023-04-07T23:35:26.986Z,0.70
2023-04-07T23:40:29.322Z,0.90
2023-04-07T23:45:31.602Z,0.70
2023-04-07T23:50:33.529Z,0.68
2023-04-07T23:55:35.813Z,0.60
